Time;durP1;ratioP1;P1;durP2;ratioP2;P2;SDS_P1;SDS_P2;PMS_P1;PMS_P2;Temp;Humidity;BMP_temperature;BMP_pressure;BME280_temperature;BME280_humidity;BME280_pressure;Samples;Min_cycle;Max_cycle;Signal;HPM_P1;HPM_P2
2023/07/21 00:00:58;;;;;;;4.20;1.60;;;18.90;86.30;;;;;;5094498;28;20046;-71
2023/07/21 00:03:24;;;;;;;3.92;1.63;;;18.90;86.30;;;;;;5095007;28;20123;-71
2023/07/21 00:05:49;;;;;;;3.90;1.60;;;18.80;86.30;;;;;;5094707;28;20119;-72
2023/07/21 00:08:16;;;;;;;3.90;1.70;;;18.80;86.40;;;;;;5094828;28;20048;-72
2023/07/21 00:10:43;;;;;;;4.10;1.60;;;18.70;86.40;;;;;;5093810;28;20032;-72
2023/07/21 00:13:08;;;;;;;4.80;1.77;;;18.70;86.30;;;;;;5076828;28;20144;-72
2023/07/21 00:15:34;;;;;;;3.40;1.42;;;18.60;86.50;;;;;;5094291;28;20458;-71
2023/07/21 00:18:00;;;;;;;4.05;1.80;;;18.60;86.60;;;;;;5075275;28;20505;-72
2023/07/21 00:20:25;;;;;;;4.47;1.73;;;18.60;86.70;;;;;;5094265;28;20040;-72
2023/07/21 00:22:51;;;;;;;3.85;1.67;;;18.50;86.70;;;;;;5093879;28;20039;-71
2023/07/21 00:25:17;;;;;;;3.45;1.65;;;18.50;86.90;;;;;;5076034;28;20094;-72
2023/07/21 00:27:44;;;;;;;3.05;1.50;;;18.50;87.00;;;;;;5093828;28;20461;-72
2023/07/21 00:30:11;;;;;;;4.35;1.85;;;18.40;87.00;;;;;;5094184;28;20375;-71
2023/07/21 00:32:37;;;;;;;4.55;1.75;;;18.40;87.00;;;;;;5093586;28;20112;-72
2023/07/21 00:35:08;;;;;;;3.60;1.60;;;18.30;87.10;;;;;;5094070;28;20093;-72
2023/07/21 00:37:34;;;;;;;3.70;1.70;;;18.30;87.10;;;;;;5093948;28;20051;-72
2023/07/21 00:40:00;;;;;;;4.65;1.67;;;18.20;87.20;;;;;;5093715;28;20051;-72
2023/07/21 00:42:26;;;;;;;4.15;1.77;;;18.20;87.50;;;;;;5093559;28;20051;-72
2023/07/21 00:44:52;;;;;;;3.83;1.65;;;18.10;87.70;;;;;;5094144;28;20059;-72
2023/07/21 00:47:18;;;;;;;3.58;1.45;;;18.10;87.60;;;;;;5075451;28;20056;-72
2023/07/21 00:49:44;;;;;;;3.20;1.70;;;18.00;87.50;;;;;;5094170;28;20048;-72
2023/07/21 00:52:12;;;;;;;3.78;1.80;;;18.00;87.70;;;;;;5075570;28;20620;-71
2023/07/21 00:54:38;;;;;;;3.35;1.70;;;17.90;87.90;;;;;;5093502;28;20050;-72
2023/07/21 00:57:04;;;;;;;3.55;1.88;;;17.90;87.90;;;;;;5093801;28;20044;-72
2023/07/21 00:59:30;;;;;;;3.80;1.63;;;17.90;87.90;;;;;;5093334;28;20044;-71
2023/07/21 01:01:56;;;;;;;2.80;1.42;;;17.90;88.10;;;;;;5093348;28;20040;-72
2023/07/21 01:04:23;;;;;;;3.40;1.77;;;17.80;88.10;;;;;;5093674;28;20517;-72
2023/07/21 01:06:49;;;;;;;3.50;1.73;;;17.90;88.30;;;;;;5093637;28;20113;-71
2023/07/21 01:09:17;;;;;;;3.85;1.80;;;17.80;88.10;;;;;;5093507;28;20040;-72
2023/07/21 01:11:42;;;;;;;2.95;1.50;;;17.80;88.10;;;;;;5093149;28;20067;-72
2023/07/21 01:14:09;;;;;;;3.78;1.88;;;17.80;88.00;;;;;;5093387;28;20493;-72
2023/07/21 01:16:37;;;;;;;5.03;1.80;;;17.70;87.90;;;;;;5093163;28;20131;-72
2023/07/21 01:19:08;;;;;;;4.50;1.85;;;17.70;88.10;;;;;;5093435;28;20086;-72
2023/07/21 01:21:51;;;;;;;3.28;1.50;;;17.70;88.20;;;;;;5075582;28;20071;-72
2023/07/21 01:24:23;;;;;;;;;;;17.60;87.80;;;;;;5093781;28;20128;-71
2023/07/21 01:26:50;;;;;;;4.10;1.55;;;17.50;87.20;;;;;;5092591;28;20323;-72
2023/07/21 01:29:18;;;;;;;3.88;1.73;;;17.50;88.30;;;;;;5092993;28;20386;-72
2023/07/21 01:31:48;;;;;;;3.97;1.63;;;17.50;88.40;;;;;;5093006;28;20139;-72
2023/07/21 01:34:15;;;;;;;2.70;1.25;;;17.50;88.30;;;;;;5092861;28;20089;-72
2023/07/21 01:36:42;;;;;;;4.05;1.77;;;17.50;88.40;;;;;;5093142;28;20498;-72
2023/07/21 01:39:08;;;;;;;3.90;1.75;;;17.40;88.20;;;;;;5092915;28;20043;-72
2023/07/21 01:41:35;;;;;;;3.28;1.67;;;17.40;88.30;;;;;;5092926;28;20044;-71
2023/07/21 01:44:01;;;;;;;3.97;1.65;;;17.40;88.10;;;;;;5092430;28;20056;-72
2023/07/21 01:46:27;;;;;;;3.55;1.63;;;17.40;88.20;;;;;;5092639;28;20127;-72
2023/07/21 01:48:52;;;;;;;3.55;1.70;;;17.30;88.10;;;;;;5092477;28;20143;-72
2023/07/21 01:51:21;;;;;;;4.72;1.65;;;17.20;88.30;;;;;;5093188;28;20048;-72
2023/07/21 01:53:58;;;;;;;3.25;1.52;;;17.20;88.30;;;;;;5092761;28;20048;-72
2023/07/21 01:56:44;;;;;;;3.75;1.67;;;17.10;89.40;;;;;;5071622;28;20059;-72
2023/07/21 01:59:11;;;;;;;3.00;1.50;;;17.10;88.30;;;;;;5086109;28;20048;-72
2023/07/21 02:01:39;;;;;;;4.47;1.75;;;17.00;89.00;;;;;;5092882;28;20100;-72
2023/07/21 02:04:05;;;;;;;3.97;1.63;;;17.00;88.90;;;;;;5092325;28;20052;-72
2023/07/21 02:06:32;;;;;;;4.10;1.77;;;16.90;89.10;;;;;;5092895;28;20052;-72
2023/07/21 02:08:58;;;;;;;3.63;1.42;;;16.90;89.20;;;;;;5092523;28;20040;-71
2023/07/21 02:11:24;;;;;;;3.55;1.67;;;16.90;89.40;;;;;;5091819;28;20050;-71
2023/07/21 02:13:50;;;;;;;4.20;1.90;;;16.80;89.50;;;;;;5092351;28;20486;-72
2023/07/21 02:16:15;;;;;;;3.50;1.90;;;16.80;89.80;;;;;;5092731;28;20047;-71
2023/07/21 02:18:42;;;;;;;3.22;1.70;;;16.70;89.70;;;;;;5092596;28;20032;-72
2023/07/21 02:21:08;;;;;;;4.45;1.80;;;16.70;89.80;;;;;;5075105;28;20533;-72
2023/07/21 02:23:33;;;;;;;3.65;1.85;;;16.70;90.00;;;;;;5092544;28;20047;-71
2023/07/21 02:25:59;;;;;;;4.03;1.70;;;16.70;90.00;;;;;;5092098;28;20044;-72
2023/07/21 02:28:25;;;;;;;4.07;1.80;;;16.60;90.00;;;;;;5091681;28;20048;-72
2023/07/21 02:31:04;;;;;;;4.57;1.77;;;16.60;89.80;;;;;;5092308;28;20044;-72
2023/07/21 02:33:30;;;;;;;4.40;2.00;;;16.50;89.60;;;;;;5092634;28;20037;-72
2023/07/21 02:35:57;;;;;;;4.53;1.83;;;16.50;90.00;;;;;;5092291;28;20037;-73
2023/07/21 02:38:23;;;;;;;3.53;1.70;;;16.50;90.00;;;;;;5091746;28;20048;-73
2023/07/21 02:40:50;;;;;;;4.00;1.80;;;16.50;90.10;;;;;;5092540;28;20113;-72
2023/07/21 02:43:17;;;;;;;3.95;1.88;;;16.50;90.10;;;;;;5095820;28;20082;-72
2023/07/21 02:45:53;;;;;;;3.65;1.80;;;16.40;90.10;;;;;;5095773;28;20055;-72
2023/07/21 02:48:20;;;;;;;4.25;1.75;;;16.40;90.00;;;;;;5096005;28;20123;-72
2023/07/21 02:50:50;;;;;;;3.83;1.80;;;16.40;90.10;;;;;;5096262;28;20059;-72
2023/07/21 02:53:18;;;;;;;4.55;1.88;;;16.30;90.50;;;;;;5095996;28;20047;-72
2023/07/21 02:55:44;;;;;;;4.05;2.00;;;16.30;90.20;;;;;;5096231;28;20048;-72
2023/07/21 02:58:13;;;;;;;4.68;1.77;;;16.30;90.20;;;;;;5095566;28;20051;-72
2023/07/21 03:00:39;;;;;;;3.92;1.90;;;16.30;90.30;;;;;;5095672;28;20040;-72
2023/07/21 03:03:06;;;;;;;3.80;1.90;;;16.20;90.20;;;;;;5095942;28;20079;-72
2023/07/21 03:05:32;;;;;;;7.10;2.03;;;16.20;90.30;;;;;;5096028;28;20059;-72
2023/07/21 03:07:59;;;;;;;4.70;2.05;;;16.20;90.30;;;;;;5095561;28;20059;-72
2023/07/21 03:10:25;;;;;;;4.68;1.80;;;16.20;90.40;;;;;;5095749;28;20048;-72
2023/07/21 03:12:50;;;;;;;3.90;1.85;;;16.20;90.30;;;;;;5095889;28;20044;-72
2023/07/21 03:15:16;;;;;;;4.10;1.88;;;16.20;90.40;;;;;;5074837;28;20035;-72
2023/07/21 03:17:42;;;;;;;3.88;1.98;;;16.20;90.30;;;;;;5095323;28;20048;-72
2023/07/21 03:20:12;;;;;;;4.28;1.80;;;16.20;90.30;;;;;;5094804;28;20048;-72
2023/07/21 03:22:47;;;;;;;3.67;1.70;;;16.10;90.20;;;;;;5095604;28;20108;-72
2023/07/21 03:25:13;;;;;;;3.88;1.80;;;16.00;90.00;;;;;;5095138;28;20551;-72
2023/07/21 03:27:43;;;;;;;3.90;2.08;;;16.00;90.30;;;;;;5095571;28;20044;-72
2023/07/21 03:30:11;;;;;;;3.78;1.80;;;16.00;90.30;;;;;;5094589;28;20119;-72
2023/07/21 03:32:38;;;;;;;3.88;1.77;;;15.90;90.30;;;;;;5094820;28;20056;-72
2023/07/21 03:35:05;;;;;;;4.90;1.92;;;15.90;90.30;;;;;;5095146;28;20455;-72
2023/07/21 03:37:35;;;;;;;3.78;1.90;;;15.90;90.30;;;;;;5077670;28;20093;-72
2023/07/21 03:40:06;;;;;;;4.40;1.60;;;15.80;90.20;;;;;;5094952;28;20040;-72
2023/07/21 03:42:33;;;;;;;3.53;1.70;;;15.80;90.30;;;;;;5077634;28;20044;-72
2023/07/21 03:45:04;;;;;;;3.30;1.77;;;15.70;90.30;;;;;;5094812;28;20086;-72
2023/07/21 03:47:33;;;;;;;3.40;1.55;;;15.70;90.30;;;;;;5094495;28;20056;-72
2023/07/21 03:49:59;;;;;;;4.13;1.65;;;15.60;90.30;;;;;;5080326;28;20082;-72
2023/07/21 03:52:27;;;;;;;2.78;1.30;;;15.60;90.40;;;;;;5094789;28;20087;-72
2023/07/21 03:54:52;;;;;;;2.30;1.35;;;15.50;90.50;;;;;;5094488;28;20394;-72
2023/07/21 03:57:20;;;;;;;3.22;1.40;;;15.50;90.40;;;;;;5094512;28;20039;-72
2023/07/21 03:59:47;;;;;;;3.47;1.45;;;15.50;90.40;;;;;;5094744;28;20490;-72
2023/07/21 04:02:12;;;;;;;2.35;1.30;;;15.40;90.60;;;;;;5076895;28;20052;-71
2023/07/21 04:04:38;;;;;;;2.58;1.23;;;15.40;90.40;;;;;;5094833;28;20565;-72
2023/07/21 04:07:05;;;;;;;2.95;1.50;;;15.40;90.50;;;;;;5094592;28;20044;-72
2023/07/21 04:09:31;;;;;;;3.25;1.45;;;15.30;90.70;;;;;;5076224;28;20481;-72
2023/07/21 04:11:57;;;;;;;2.83;1.35;;;15.30;90.80;;;;;;5093889;28;20044;-72
2023/07/21 04:14:23;;;;;;;2.53;1.48;;;15.30;90.90;;;;;;5094571;28;20406;-72
2023/07/21 04:16:48;;;;;;;2.80;1.20;;;15.20;91.00;;;;;;5076189;28;20393;-72
2023/07/21 04:19:14;;;;;;;2.60;1.30;;;15.30;91.00;;;;;;5076529;28;20161;-72
2023/07/21 04:21:39;;;;;;;2.08;1.15;;;15.30;91.00;;;;;;5093949;28;20497;-72
2023/07/21 04:24:05;;;;;;;4.38;1.20;;;15.20;90.90;;;;;;5093679;28;20043;-72
2023/07/21 04:26:32;;;;;;;1.70;0.80;;;15.20;90.90;;;;;;5092658;28;20055;-71
2023/07/21 04:28:58;;;;;;;1.58;0.93;;;15.20;91.00;;;;;;5093046;28;20052;-72
2023/07/21 04:31:28;;;;;;;2.88;0.98;;;15.20;91.00;;;;;;5074955;28;20383;-71
2023/07/21 04:33:57;;;;;;;1.48;0.90;;;15.20;90.90;;;;;;5093880;28;20481;-72
2023/07/21 04:36:23;;;;;;;2.33;0.90;;;15.20;90.90;;;;;;5093479;28;20130;-72
2023/07/21 04:38:48;;;;;;;2.92;0.90;;;15.10;91.00;;;;;;5075908;28;20090;-72
2023/07/21 04:41:14;;;;;;;1.77;0.90;;;15.20;90.90;;;;;;5093660;28;20488;-72
2023/07/21 04:43:40;;;;;;;2.40;0.98;;;15.10;90.80;;;;;;5072468;28;20066;-71
2023/07/21 04:46:06;;;;;;;1.75;0.90;;;15.10;90.90;;;;;;5089075;28;20072;-72
2023/07/21 04:48:31;;;;;;;3.22;1.10;;;15.10;91.00;;;;;;5092504;28;20511;-71
2023/07/21 04:50:57;;;;;;;2.08;1.10;;;15.10;91.00;;;;;;5071952;28;20040;-72
2023/07/21 04:53:23;;;;;;;2.63;1.15;;;15.00;91.00;;;;;;5073259;28;20079;-72
2023/07/21 04:55:54;;;;;;;2.00;1.00;;;15.00;91.00;;;;;;5092619;28;20051;-71
2023/07/21 04:58:19;;;;;;;1.98;1.10;;;15.00;90.90;;;;;;5091908;28;21563;-72
2023/07/21 05:00:45;;;;;;;3.05;1.20;;;15.00;91.10;;;;;;5093144;28;20166;-71
2023/07/21 05:03:10;;;;;;;2.05;1.00;;;15.00;91.00;;;;;;5095658;28;20040;-71
2023/07/21 05:05:37;;;;;;;2.00;0.95;;;15.00;91.00;;;;;;5083310;28;20392;-71
2023/07/21 05:08:03;;;;;;;3.50;1.30;;;15.00;91.20;;;;;;5073892;28;20047;-72
2023/07/21 05:10:30;;;;;;;2.85;1.13;;;15.00;91.20;;;;;;5074366;28;20055;-72
2023/07/21 05:12:57;;;;;;;3.00;1.20;;;15.00;91.20;;;;;;5092434;28;20089;-72
2023/07/21 05:15:24;;;;;;;4.22;1.10;;;14.90;91.20;;;;;;5074556;28;20044;-71
2023/07/21 05:17:50;;;;;;;2.60;1.10;;;14.90;91.10;;;;;;5093477;28;20047;-72
2023/07/21 05:20:16;;;;;;;2.63;1.23;;;14.90;90.80;;;;;;5092538;28;20093;-72
2023/07/21 05:22:41;;;;;;;3.38;1.40;;;14.90;91.20;;;;;;5074590;28;20043;-72
2023/07/21 05:25:11;;;;;;;3.38;1.20;;;14.90;91.10;;;;;;5091088;28;20088;-72
2023/07/21 05:27:37;;;;;;;2.28;1.27;;;14.90;91.30;;;;;;5074991;28;20448;-72
2023/07/21 05:30:03;;;;;;;2.90;1.25;;;14.90;91.30;;;;;;5092877;28;20036;-71
2023/07/21 05:32:29;;;;;;;3.15;1.25;;;14.90;91.30;;;;;;5093376;28;20394;-72
2023/07/21 05:34:55;;;;;;;3.58;1.35;;;14.90;91.40;;;;;;5089139;28;20047;-72
2023/07/21 05:37:20;;;;;;;4.45;1.23;;;15.00;91.30;;;;;;5073097;28;20074;-72
2023/07/21 05:39:49;;;;;;;3.17;1.48;;;14.90;91.20;;;;;;5082803;28;20040;-72
2023/07/21 05:42:15;;;;;;;3.28;1.55;;;15.00;91.30;;;;;;5095146;28;20067;-72
2023/07/21 05:44:45;;;;;;;2.80;1.40;;;15.00;91.40;;;;;;5075298;28;20041;-72
2023/07/21 05:47:10;;;;;;;2.72;1.38;;;15.00;91.30;;;;;;5074453;28;20131;-71
2023/07/21 05:49:36;;;;;;;4.22;1.50;;;15.00;91.70;;;;;;5093164;28;20123;-72
2023/07/21 05:52:02;;;;;;;3.67;1.73;;;15.00;91.40;;;;;;5092396;28;20036;-71
2023/07/21 05:54:27;;;;;;;2.65;1.30;;;15.00;91.30;;;;;;5073482;28;20048;-72
2023/07/21 05:56:54;;;;;;;3.83;1.50;;;15.00;91.40;;;;;;5086714;28;20067;-71
2023/07/21 05:59:20;;;;;;;3.20;1.48;;;15.00;91.40;;;;;;5068011;28;20523;-72
2023/07/21 06:01:45;;;;;;;3.78;1.80;;;15.00;91.40;;;;;;5091570;28;20036;-72
2023/07/21 06:04:11;;;;;;;2.17;1.42;;;15.00;91.20;;;;;;5092734;28;20051;-71
2023/07/21 06:06:37;;;;;;;3.30;1.60;;;15.00;91.20;;;;;;5092668;28;20169;-71
2023/07/21 06:09:03;;;;;;;2.83;1.40;;;15.00;91.00;;;;;;5092134;28;20123;-72
2023/07/21 06:11:29;;;;;;;2.90;1.42;;;15.00;90.80;;;;;;5092173;28;20383;-72
2023/07/21 06:13:54;;;;;;;2.90;1.38;;;15.00;90.80;;;;;;5092256;28;20054;-72
2023/07/21 06:16:22;;;;;;;2.80;1.48;;;15.00;90.90;;;;;;5094935;28;20058;-75
2023/07/21 06:18:52;;;;;;;3.10;1.40;;;15.00;91.00;;;;;;5079034;28;20136;-71
2023/07/21 06:21:19;;;;;;;3.97;1.40;;;15.10;91.00;;;;;;5078319;28;20032;-72
2023/07/21 06:23:45;;;;;;;3.10;1.60;;;15.10;90.80;;;;;;5096822;28;20046;-72
2023/07/21 06:26:11;;;;;;;2.78;1.33;;;15.10;90.90;;;;;;5096769;28;20114;-72
2023/07/21 06:28:36;;;;;;;3.03;1.50;;;15.10;91.00;;;;;;5096704;28;20043;-72
2023/07/21 06:31:02;;;;;;;7.85;2.97;;;15.20;91.20;;;;;;5078993;28;20097;-72
2023/07/21 06:33:28;;;;;;;3.13;1.40;;;15.20;91.90;;;;;;5078741;28;20512;-72
2023/07/21 06:35:54;;;;;;;6.15;1.92;;;15.30;91.70;;;;;;5096644;28;20383;-72
2023/07/21 06:38:20;;;;;;;3.47;1.80;;;15.30;91.60;;;;;;5095694;28;20118;-72
2023/07/21 06:40:45;;;;;;;5.72;2.10;;;15.40;91.40;;;;;;5096019;28;20047;-72
2023/07/21 06:43:11;;;;;;;6.15;2.15;;;15.40;91.40;;;;;;5096457;28;20043;-72
2023/07/21 06:45:39;;;;;;;3.75;1.63;;;15.50;92.00;;;;;;5095633;28;20089;-72
2023/07/21 06:48:06;;;;;;;2.72;1.33;;;15.60;92.00;;;;;;5077757;28;20127;-73
2023/07/21 06:50:32;;;;;;;4.05;1.65;;;15.70;91.60;;;;;;5095628;28;20044;-72
2023/07/21 06:52:58;;;;;;;3.60;1.42;;;15.70;91.90;;;;;;5094737;28;20444;-72
2023/07/21 06:55:24;;;;;;;3.55;1.30;;;15.80;91.70;;;;;;5096101;28;20055;-73
2023/07/21 06:57:49;;;;;;;5.88;1.73;;;15.90;91.80;;;;;;5077045;28;20036;-72
2023/07/21 07:00:16;;;;;;;3.50;1.40;;;16.00;92.00;;;;;;5077616;28;20036;-72
2023/07/21 07:02:47;;;;;;;3.75;1.40;;;16.10;91.70;;;;;;5094638;28;20044;-72
2023/07/21 07:05:13;;;;;;;3.97;1.38;;;16.20;91.70;;;;;;5090216;28;20152;-72
2023/07/21 07:07:39;;;;;;;5.82;1.50;;;16.30;91.60;;;;;;5075657;28;20375;-72
2023/07/21 07:10:06;;;;;;;4.32;1.50;;;16.30;91.60;;;;;;5086255;28;20050;-72
2023/07/21 07:12:32;;;;;;;4.13;1.30;;;16.40;91.80;;;;;;5090648;28;20036;-72
2023/07/21 07:14:59;;;;;;;3.40;1.20;;;16.60;91.80;;;;;;5071537;28;20062;-72
2023/07/21 07:17:25;;;;;;;4.47;1.35;;;16.60;92.00;;;;;;5075738;28;20044;-73
2023/07/21 07:19:50;;;;;;;4.07;1.42;;;16.70;91.60;;;;;;5087189;28;20047;-73
2023/07/21 07:22:19;;;;;;;4.50;1.30;;;16.80;91.50;;;;;;5079188;28;20047;-73
2023/07/21 07:24:45;;;;;;;3.17;1.25;;;16.80;91.80;;;;;;5091061;28;20048;-73
2023/07/21 07:27:10;;;;;;;3.25;1.15;;;17.00;91.50;;;;;;5092107;28;21600;-73
2023/07/21 07:29:36;;;;;;;4.03;1.38;;;17.10;91.30;;;;;;5078950;28;20048;-74
2023/07/21 07:32:02;;;;;;;5.35;1.40;;;17.10;91.40;;;;;;5074126;28;20395;-73
2023/07/21 07:34:27;;;;;;;4.68;1.40;;;17.20;91.30;;;;;;5089169;28;20041;-73
2023/07/21 07:36:54;;;;;;;3.00;1.20;;;17.40;91.30;;;;;;5094783;28;20108;-73
2023/07/21 07:39:19;;;;;;;4.00;1.13;;;17.50;90.90;;;;;;5089389;28;20044;-73
2023/07/21 07:41:45;;;;;;;4.32;1.60;;;17.60;90.70;;;;;;5065890;28;20051;-73
2023/07/21 07:44:11;;;;;;;3.22;1.20;;;17.70;90.80;;;;;;5088394;28;20390;-73
2023/07/21 07:46:37;;;;;;;3.20;1.42;;;17.80;90.90;;;;;;5091038;28;20121;-73
2023/07/21 07:49:03;;;;;;;3.75;1.48;;;17.80;90.70;;;;;;5093758;28;20052;-73
2023/07/21 07:51:29;;;;;;;3.33;1.50;;;18.00;90.80;;;;;;5083075;28;20055;-72
2023/07/21 07:53:57;;;;;;;4.15;1.30;;;18.10;90.70;;;;;;5094967;28;20056;-72
2023/07/21 07:56:23;;;;;;;5.32;1.67;;;18.20;90.50;;;;;;5079211;28;20072;-72
2023/07/21 07:58:49;;;;;;;2.92;1.15;;;18.30;90.30;;;;;;5084034;28;20063;-72
2023/07/21 08:01:15;;;;;;;2.70;1.13;;;18.40;90.10;;;;;;5072631;28;20058;-73
2023/07/21 08:03:43;;;;;;;2.95;1.20;;;18.40;90.00;;;;;;5092204;28;20485;-72
2023/07/21 08:06:12;;;;;;;3.00;1.30;;;18.50;90.00;;;;;;5094191;28;20040;-72
2023/07/21 08:08:39;;;;;;;5.25;1.60;;;18.60;89.40;;;;;;5076385;28;20063;-72
2023/07/21 08:11:06;;;;;;;3.30;1.20;;;18.70;89.20;;;;;;5094037;28;20059;-72
2023/07/21 08:13:31;;;;;;;2.05;1.10;;;18.80;88.80;;;;;;5094752;28;20122;-73
2023/07/21 08:15:57;;;;;;;3.13;1.13;;;18.90;88.80;;;;;;5094124;28;20079;-73
2023/07/21 08:18:23;;;;;;;4.20;1.20;;;19.00;88.60;;;;;;5059750;28;20063;-73
2023/07/21 08:20:50;;;;;;;2.80;1.05;;;19.00;88.40;;;;;;5093745;28;20055;-73
2023/07/21 08:23:16;;;;;;;3.15;1.15;;;19.20;88.40;;;;;;5094088;28;20044;-73
2023/07/21 08:25:42;;;;;;;2.28;1.08;;;19.30;88.80;;;;;;5093649;28;20123;-73
2023/07/21 08:28:08;;;;;;;2.25;0.93;;;19.40;88.70;;;;;;5094547;28;20524;-72
2023/07/21 08:30:35;;;;;;;2.65;1.20;;;19.50;88.50;;;;;;5093304;28;20048;-72
2023/07/21 08:33:02;;;;;;;3.88;1.10;;;19.50;87.60;;;;;;5059082;28;20040;-73
2023/07/21 08:35:28;;;;;;;3.20;1.08;;;19.60;87.10;;;;;;5094491;28;20129;-73
2023/07/21 08:37:55;;;;;;;2.35;1.00;;;19.70;86.30;;;;;;5094384;28;20094;-72
2023/07/21 08:40:22;;;;;;;1.83;0.80;;;19.80;86.40;;;;;;5092198;28;20055;-72
2023/07/21 08:42:49;;;;;;;5.13;1.27;;;19.90;86.30;;;;;;5093560;28;20482;-72
2023/07/21 08:45:15;;;;;;;3.78;1.10;;;20.00;83.60;;;;;;5092625;28;20040;-73
2023/07/21 08:47:41;;;;;;;3.17;1.00;;;20.10;83.50;;;;;;5093748;28;20051;-72
2023/07/21 08:50:07;;;;;;;1.58;0.85;;;20.10;85.40;;;;;;5093190;28;20044;-73
2023/07/21 08:52:32;;;;;;;3.80;1.17;;;20.20;86.50;;;;;;5093126;28;20094;-72
2023/07/21 08:55:02;;;;;;;2.00;0.73;;;20.30;83.40;;;;;;5094028;28;20086;-72
2023/07/21 08:57:27;;;;;;;4.95;1.20;;;20.40;84.80;;;;;;5093524;28;20382;-72
2023/07/21 08:59:54;;;;;;;3.03;1.10;;;20.50;84.70;;;;;;5093362;28;20036;-72
2023/07/21 09:02:40;;;;;;;3.83;1.10;;;20.50;83.90;;;;;;5093194;28;20040;-72
2023/07/21 09:05:06;;;;;;;1.88;0.77;;;20.60;83.40;;;;;;5091290;28;20405;-73
2023/07/21 09:07:31;;;;;;;1.67;0.90;;;20.70;85.00;;;;;;5092917;28;20066;-72
2023/07/21 09:09:57;;;;;;;2.45;0.93;;;20.80;85.60;;;;;;5084845;28;20048;-72
2023/07/21 09:12:34;;;;;;;2.80;1.05;;;20.90;84.40;;;;;;5086294;28;20076;-73
2023/07/21 09:15:10;;;;;;;2.55;0.95;;;21.00;84.20;;;;;;5087129;28;20522;-72
2023/07/21 09:17:41;;;;;;;1.88;0.88;;;21.10;83.00;;;;;;5087827;28;20128;-73
2023/07/21 09:20:09;;;;;;;4.88;1.30;;;21.20;82.70;;;;;;5071503;28;20080;-72
2023/07/21 09:23:05;;;;;;;2.22;0.82;;;21.30;82.30;;;;;;5091844;28;20048;-72
2023/07/21 09:25:31;;;;;;;4.00;0.98;;;21.40;83.00;;;;;;5056585;28;20127;-73
2023/07/21 09:27:57;;;;;;;1.55;0.80;;;21.60;81.50;;;;;;5072862;28;20112;-72
2023/07/21 09:30:23;;;;;;;1.30;0.63;;;21.60;80.70;;;;;;5086853;28;20059;-73
2023/07/21 09:32:54;;;;;;;2.83;0.80;;;21.70;82.60;;;;;;5087172;28;20060;-73
2023/07/21 09:35:21;;;;;;;1.65;0.80;;;21.80;82.40;;;;;;5090289;28;20086;-73
2023/07/21 09:37:50;;;;;;;2.70;0.90;;;21.90;80.80;;;;;;5079070;28;20135;-70
2023/07/21 09:40:17;;;;;;;3.25;0.90;;;21.90;79.80;;;;;;5093423;28;20082;-70
2023/07/21 09:42:43;;;;;;;2.58;0.90;;;21.90;77.90;;;;;;5080986;28;20047;-70
2023/07/21 09:45:09;;;;;;;3.35;0.88;;;22.00;78.10;;;;;;5072781;28;20048;-70
2023/07/21 09:47:39;;;;;;;1.75;0.85;;;22.00;79.10;;;;;;5087023;28;20052;-70
2023/07/21 09:50:05;;;;;;;4.22;0.90;;;22.10;80.50;;;;;;5072302;28;20406;-70
2023/07/21 09:52:37;;;;;;;2.70;1.00;;;22.20;80.90;;;;;;5091363;28;20090;-70
2023/07/21 09:55:15;;;;;;;4.43;1.05;;;22.20;82.30;;;;;;5078906;28;20446;-70
2023/07/21 09:57:44;;;;;;;1.83;0.75;;;22.20;81.70;;;;;;5093053;28;20091;-70
2023/07/21 10:00:14;;;;;;;2.25;0.88;;;22.20;76.80;;;;;;5078494;28;20551;-70
2023/07/21 10:02:45;;;;;;;2.17;0.82;;;22.20;77.40;;;;;;5091269;28;20032;-70
2023/07/21 10:05:11;;;;;;;2.05;0.80;;;22.20;76.90;;;;;;5077881;28;20052;-70
2023/07/21 10:07:46;;;;;;;3.10;1.00;;;22.20;79.50;;;;;;5090489;28;20051;-70
2023/07/21 10:10:12;;;;;;;4.07;1.20;;;22.20;76.00;;;;;;5088054;28;20036;-70
2023/07/21 10:12:52;;;;;;;1.48;0.77;;;22.20;74.90;;;;;;5091948;28;20071;-70
2023/07/21 10:15:31;;;;;;;5.00;1.10;;;22.20;78.50;;;;;;5074660;28;20101;-69
2023/07/21 10:18:00;;;;;;;1.88;0.70;;;22.30;75.90;;;;;;5080225;28;20047;-70
2023/07/21 10:20:50;;;;;;;4.60;1.08;;;22.30;80.60;;;;;;5091563;28;20047;-70
2023/07/21 10:23:30;;;;;;;2.47;1.08;;;22.30;77.50;;;;;;5092334;28;20055;-70
2023/07/21 10:26:00;;;;;;;3.20;1.20;;;22.30;74.90;;;;;;5092677;28;20036;-70
2023/07/21 10:28:44;;;;;;;2.08;0.82;;;22.40;74.60;;;;;;5074861;28;20477;-69
2023/07/21 10:31:25;;;;;;;2.63;1.00;;;22.40;79.30;;;;;;5073371;28;20052;-70
2023/07/21 10:34:04;;;;;;;2.33;0.90;;;22.40;79.50;;;;;;5092449;28;20101;-70
2023/07/21 10:36:51;;;;;;;2.88;0.90;;;22.50;80.20;;;;;;5091595;28;20049;-70
2023/07/21 10:39:47;;;;;;;3.47;1.02;;;22.50;80.70;;;;;;5091770;28;20044;-69
2023/07/21 10:42:16;;;;;;;4.07;1.00;;;22.50;80.60;;;;;;5076930;28;20040;-70
2023/07/21 10:44:46;;;;;;;4.22;1.20;;;22.50;81.80;;;;;;5092487;28;20040;-69
2023/07/21 10:47:19;;;;;;;1.80;1.00;;;22.60;76.30;;;;;;5090022;28;20079;-70
2023/07/21 10:49:47;;;;;;;3.53;1.10;;;22.50;74.30;;;;;;5091849;28;20070;-72
2023/07/21 10:52:14;;;;;;;2.67;1.02;;;22.60;77.70;;;;;;5057694;28;20055;-70
2023/07/21 10:54:40;;;;;;;3.42;1.40;;;22.60;79.70;;;;;;5089298;28;20127;-71
2023/07/21 10:57:07;;;;;;;4.03;1.30;;;22.70;75.40;;;;;;5088035;28;20402;-72
2023/07/21 10:59:35;;;;;;;2.22;1.08;;;22.70;72.60;;;;;;5092056;28;20052;-73
2023/07/21 11:02:02;;;;;;;3.45;1.23;;;22.70;73.60;;;;;;5092508;28;20059;-74
2023/07/21 11:04:29;;;;;;;1.90;0.95;;;22.70;71.20;;;;;;5092021;28;20085;-74
2023/07/21 11:06:59;;;;;;;2.30;1.00;;;22.80;74.70;;;;;;5081802;28;20506;-74
2023/07/21 11:09:26;;;;;;;3.40;1.40;;;22.80;77.80;;;;;;5090768;28;20043;-73
2023/07/21 11:12:03;;;;;;;2.67;1.30;;;22.90;72.60;;;;;;5064550;28;20131;-73
2023/07/21 11:14:29;;;;;;;2.88;1.25;;;22.90;71.20;;;;;;5094737;28;20060;-73
2023/07/21 11:17:00;;;;;;;2.95;1.10;;;22.90;71.60;;;;;;5094680;28;20038;-73
2023/07/21 11:19:28;;;;;;;3.15;1.10;;;22.90;72.20;;;;;;5094455;28;20080;-73
2023/07/21 11:21:54;;;;;;;2.65;1.17;;;23.00;67.00;;;;;;5090961;28;20505;-73
2023/07/21 11:24:25;;;;;;;8.70;1.10;;;23.00;69.60;;;;;;5075286;28;20044;-73
2023/07/21 11:26:53;;;;;;;4.38;1.10;;;23.00;65.70;;;;;;5083678;28;20055;-73
2023/07/21 11:29:19;;;;;;;3.47;1.00;;;23.00;63.60;;;;;;5095002;28;20421;-73
2023/07/21 11:31:45;;;;;;;3.90;1.10;;;23.10;62.50;;;;;;5094953;28;20044;-73
2023/07/21 11:34:30;;;;;;;2.97;0.90;;;23.20;67.10;;;;;;5094173;28;20048;-73
2023/07/21 11:36:58;;;;;;;3.00;0.73;;;23.20;61.70;;;;;;5095722;28;20043;-73
2023/07/21 11:39:27;;;;;;;2.67;0.90;;;23.20;68.10;;;;;;5094983;28;20134;-73
2023/07/21 11:41:56;;;;;;;2.42;1.08;;;23.20;61.90;;;;;;5092368;28;20040;-73
2023/07/21 11:44:30;;;;;;;2.20;1.08;;;23.30;65.90;;;;;;5094907;28;20875;-73
2023/07/21 11:47:09;;;;;;;2.65;1.00;;;23.40;67.40;;;;;;5093975;28;20051;-73
2023/07/21 11:49:40;;;;;;;3.25;1.20;;;23.40;60.00;;;;;;5077036;28;20504;-73
2023/07/21 11:52:07;;;;;;;1.90;1.00;;;23.40;61.10;;;;;;5094281;28;20127;-74
2023/07/21 11:54:42;;;;;;;4.32;1.13;;;23.40;59.70;;;;;;5059369;28;20040;-73
2023/07/21 11:57:09;;;;;;;2.65;1.10;;;23.40;57.70;;;;;;5091148;28;20054;-73
2023/07/21 11:59:35;;;;;;;2.55;1.00;;;23.40;58.20;;;;;;5095026;28;20059;-73
2023/07/21 12:02:05;;;;;;;2.42;0.90;;;23.50;57.70;;;;;;5094109;28;20048;-74
2023/07/21 12:04:32;;;;;;;3.47;1.10;;;23.40;64.10;;;;;;5091179;28;20044;-73
2023/07/21 12:06:58;;;;;;;2.42;1.00;;;23.50;62.70;;;;;;5076864;28;20040;-73
2023/07/21 12:09:23;;;;;;;3.00;1.20;;;23.50;59.70;;;;;;5072352;28;20131;-73
2023/07/21 12:11:51;;;;;;;2.50;1.10;;;23.50;60.40;;;;;;5069083;28;20121;-75
2023/07/21 12:14:17;;;;;;;3.55;1.10;;;23.50;60.20;;;;;;5081083;28;20059;-75
2023/07/21 12:16:43;;;;;;;2.15;1.10;;;23.50;58.80;;;;;;5093852;28;20036;-73
2023/07/21 12:19:09;;;;;;;3.10;0.85;;;23.50;59.50;;;;;;5075746;28;20397;-73
2023/07/21 12:21:35;;;;;;;3.10;1.10;;;23.50;60.30;;;;;;5075547;28;20055;-73
2023/07/21 12:24:01;;;;;;;5.10;1.30;;;23.50;60.90;;;;;;5080016;28;20036;-74
2023/07/21 12:26:27;;;;;;;2.75;1.20;;;23.50;58.50;;;;;;5086940;28;20051;-73
2023/07/21 12:28:53;;;;;;;2.70;1.27;;;23.50;61.00;;;;;;5080646;28;20072;-73
2023/07/21 12:31:20;;;;;;;5.10;1.10;;;23.50;61.20;;;;;;5090079;28;20084;-74
2023/07/21 12:33:47;;;;;;;2.67;1.17;;;23.40;63.70;;;;;;5088129;28;20043;-74
2023/07/21 12:36:14;;;;;;;2.30;1.10;;;23.40;66.50;;;;;;5089113;28;20036;-73
2023/07/21 12:38:43;;;;;;;3.38;1.35;;;23.40;62.50;;;;;;5091150;28;20043;-73
2023/07/21 12:41:10;;;;;;;3.53;1.05;;;23.40;63.70;;;;;;5077234;28;20059;-74
2023/07/21 12:43:36;;;;;;;4.55;1.42;;;23.50;64.40;;;;;;5076786;28;20040;-73
2023/07/21 12:46:03;;;;;;;4.30;1.20;;;23.40;63.50;;;;;;5090412;28;20044;-74
2023/07/21 12:48:30;;;;;;;2.88;0.90;;;23.50;67.30;;;;;;5091555;28;20062;-73
2023/07/21 12:50:57;;;;;;;5.15;1.55;;;23.50;65.30;;;;;;5068030;28;20090;-73